Time;durP1;ratioP1;P1;durP2;ratioP2;P2;SDS_P1;SDS_P2;PMS_P1;PMS_P2;Temp;Humidity;BMP_temperature;BMP_pressure;BME280_temperature;BME280_humidity;BME280_pressure;Samples;Min_cycle;Max_cycle;Signal;HPM_P1;HPM_P2
2022/05/12 00:00:35;;;;;;;7.55;5.70;;;;;;;17.29;47.34;98182.28;4990459;28;20085;-71
2022/05/12 00:03:00;;;;;;;7.78;5.68;;;;;;;17.28;47.21;98181.47;4990842;28;20061;-71
2022/05/12 00:05:26;;;;;;;9.88;4.95;;;;;;;17.26;47.02;98172.69;4989680;28;20034;-71
2022/05/12 00:07:52;;;;;;;9.43;5.40;;;;;;;17.24;47.32;98173.06;4989614;28;20034;-71
2022/05/12 00:10:21;;;;;;;9.35;5.90;;;;;;;17.22;47.46;98180.06;4990944;28;20038;-71
2022/05/12 00:12:47;;;;;;;8.88;5.40;;;;;;;17.20;47.70;98179.63;4990975;28;20026;-71
2022/05/12 00:15:20;;;;;;;9.18;5.43;;;;;;;17.16;47.58;98179.53;4990478;28;20034;-71
2022/05/12 00:17:45;;;;;;;9.80;5.63;;;;;;;17.16;47.38;98181.47;4990360;28;20092;-71
2022/05/12 00:20:13;;;;;;;7.15;5.35;;;;;;;17.15;47.05;98169.59;4990895;28;20740;-71
2022/05/12 00:22:38;;;;;;;7.53;5.57;;;;;;;17.14;47.59;98169.91;4990696;28;20064;-71
2022/05/12 00:25:10;;;;;;;8.13;5.25;;;;;;;17.10;47.40;98167.88;4990406;28;20466;-72
2022/05/12 00:27:36;;;;;;;8.07;4.80;;;;;;;17.09;47.73;98165.44;4987918;28;20042;-71
2022/05/12 00:30:01;;;;;;;7.32;4.90;;;;;;;17.10;47.49;98161.50;4989300;28;20109;-71
2022/05/12 00:32:27;;;;;;;8.73;5.25;;;;;;;17.11;47.20;98160.34;4990158;28;20050;-71
2022/05/12 00:34:52;;;;;;;5.47;4.57;;;;;;;17.12;47.10;98161.97;4989905;28;20027;-72
2022/05/12 00:37:17;;;;;;;5.93;4.47;;;;;;;17.13;46.92;98158.03;4989762;28;20061;-71
2022/05/12 00:39:43;;;;;;;9.43;5.15;;;;;;;17.13;47.25;98157.22;4990122;28;20029;-72
2022/05/12 00:42:08;;;;;;;6.65;4.50;;;;;;;17.14;46.84;98159.66;4989580;28;20421;-72
2022/05/12 00:44:34;;;;;;;8.80;5.07;;;;;;;17.17;46.65;98160.91;4990141;28;20019;-71
2022/05/12 00:47:01;;;;;;;7.70;5.07;;;;;;;17.18;46.49;98154.22;4990601;28;20030;-71
2022/05/12 00:49:37;;;;;;;6.97;4.72;;;;;;;17.18;46.86;98154.22;4988438;28;20022;-71
2022/05/12 00:52:02;;;;;;;6.38;4.80;;;;;;;17.19;46.41;98161.38;4989593;28;20027;-71
2022/05/12 00:54:38;;;;;;;7.53;5.03;;;;;;;17.15;46.60;98157.69;4990632;28;20033;-71
2022/05/12 00:57:06;;;;;;;7.53;5.15;;;;;;;17.13;47.18;98151.69;4988892;28;20034;-71
2022/05/12 00:59:33;;;;;;;6.50;5.20;;;;;;;17.08;47.01;98149.97;4990445;28;20058;-71
2022/05/12 01:02:02;;;;;;;7.15;4.85;;;;;;;17.04;46.62;98146.25;4990435;28;20089;-71
2022/05/12 01:04:30;;;;;;;7.05;4.85;;;;;;;17.01;46.50;98149.72;4988084;28;20497;-71
2022/05/12 01:06:55;;;;;;;8.13;4.68;;;;;;;16.95;47.28;98136.06;4987652;28;20026;-71
2022/05/12 01:09:21;;;;;;;7.25;4.75;;;;;;;16.94;47.17;98130.91;4990609;28;20393;-71
2022/05/12 01:11:48;;;;;;;8.73;4.72;;;;;;;16.92;47.03;98133.19;4989328;28;20023;-71
2022/05/12 01:14:14;;;;;;;8.00;5.22;;;;;;;16.89;47.26;98131.94;4990359;28;20490;-71
2022/05/12 01:16:45;;;;;;;7.72;5.07;;;;;;;16.87;47.10;98138.97;4989955;28;20072;-72
2022/05/12 01:19:19;;;;;;;6.95;4.85;;;;;;;16.84;47.34;98134.94;4989509;28;20038;-71
2022/05/12 01:21:46;;;;;;;10.18;5.20;;;;;;;16.80;47.49;98137.56;4990331;28;20447;-71
2022/05/12 01:24:15;;;;;;;8.45;5.18;;;;;;;16.76;47.15;98133.88;4989848;28;20026;-72
2022/05/12 01:26:41;;;;;;;8.65;5.15;;;;;;;16.73;47.39;98126.25;4989866;28;20096;-72
2022/05/12 01:29:07;;;;;;;7.70;4.88;;;;;;;16.70;47.34;98132.53;4989107;28;20051;-71
2022/05/12 01:31:34;;;;;;;6.82;4.65;;;;;;;16.67;47.15;98128.47;4990007;28;20038;-71
2022/05/12 01:33:59;;;;;;;6.82;4.30;;;;;;;16.65;47.35;98132.75;4989958;28;20034;-71
2022/05/12 01:36:25;;;;;;;6.13;4.43;;;;;;;16.62;47.82;98125.91;4989946;28;20023;-71
2022/05/12 01:38:51;;;;;;;7.00;4.70;;;;;;;16.61;47.70;98126.28;4989526;28;20038;-71
2022/05/12 01:41:17;;;;;;;5.93;4.68;;;;;;;16.58;47.62;98122.22;4990309;28;20043;-71
2022/05/12 01:43:43;;;;;;;7.03;4.55;;;;;;;16.57;47.73;98126.13;4989990;28;20572;-71
2022/05/12 01:46:08;;;;;;;6.95;4.55;;;;;;;16.57;47.95;98126.13;4988504;28;20034;-71
2022/05/12 01:48:34;;;;;;;7.78;5.20;;;;;;;16.55;47.54;98119.34;4992596;28;20038;-71
2022/05/12 01:50:59;;;;;;;6.72;4.70;;;;;;;16.52;47.71;98124.41;4993902;28;20027;-71
2022/05/12 01:53:25;;;;;;;6.85;4.78;;;;;;;16.50;48.04;98123.16;4993643;28;20038;-72
2022/05/12 01:55:50;;;;;;;7.47;5.03;;;;;;;16.48;48.20;98126.25;4993247;28;20026;-71
2022/05/12 01:58:21;;;;;;;8.48;4.93;;;;;;;16.46;47.92;98130.53;4993220;28;20093;-71
2022/05/12 02:00:46;;;;;;;8.18;5.10;;;;;;;16.43;48.11;98122.91;4993277;28;20034;-71
2022/05/12 02:03:12;;;;;;;8.00;5.07;;;;;;;16.42;47.94;98124.06;4992379;28;20029;-71
2022/05/12 02:05:39;;;;;;;8.98;4.78;;;;;;;16.39;48.33;98121.97;4991670;28;20042;-71
2022/05/12 02:08:06;;;;;;;8.35;4.82;;;;;;;16.37;48.58;98123.13;4992944;28;20026;-71
2022/05/12 02:10:37;;;;;;;7.97;5.07;;;;;;;16.36;48.17;98129.81;4992355;28;20500;-71
2022/05/12 02:13:04;;;;;;;9.68;5.10;;;;;;;16.34;48.51;98123.81;4992811;28;20046;-71
2022/05/12 02:15:29;;;;;;;8.23;5.20;;;;;;;16.32;47.96;98126.13;4992245;28;20030;-71
2022/05/12 02:17:55;;;;;;;7.15;4.82;;;;;;;16.30;48.62;98128.41;4992543;28;20114;-71
2022/05/12 02:20:22;;;;;;;6.68;4.93;;;;;;;16.30;48.35;98128.41;4993044;28;20030;-71
2022/05/12 02:22:48;;;;;;;8.95;5.15;;;;;;;16.30;48.65;98124.84;4991737;28;20382;-72
2022/05/12 02:25:13;;;;;;;7.38;4.65;;;;;;;16.31;48.28;98129.22;4992415;28;20062;-73
2022/05/12 02:27:45;;;;;;;7.32;4.93;;;;;;;16.33;48.43;98133.25;4992656;28;20061;-73
2022/05/12 02:30:13;;;;;;;8.00;4.68;;;;;;;16.35;48.65;98127.38;4991994;28;20054;-73
2022/05/12 02:32:39;;;;;;;6.03;4.93;;;;;;;16.37;48.38;98125.06;4991971;28;20041;-72
2022/05/12 02:35:05;;;;;;;7.80;5.10;;;;;;;16.36;48.19;98132.59;4992284;28;20034;-73
2022/05/12 02:37:30;;;;;;;5.68;4.40;;;;;;;16.39;48.75;98128.31;4992461;28;20121;-73
2022/05/12 02:39:56;;;;;;;7.70;4.90;;;;;;;16.44;48.34;98122.56;4992377;28;20113;-73
2022/05/12 02:42:22;;;;;;;8.48;4.68;;;;;;;16.47;48.43;98124.63;4992726;28;20030;-73
2022/05/12 02:44:47;;;;;;;6.30;4.88;;;;;;;16.50;48.71;98125.94;4991607;28;20372;-73
2022/05/12 02:47:14;;;;;;;8.25;4.60;;;;;;;16.50;48.28;98117.63;4991096;28;20043;-74
2022/05/12 02:49:41;;;;;;;7.88;4.57;;;;;;;16.50;48.63;98112.09;4991987;28;20058;-73
2022/05/12 02:52:08;;;;;;;7.18;4.60;;;;;;;16.54;48.53;98117.72;4992892;28;20038;-73
2022/05/12 02:54:34;;;;;;;7.32;4.55;;;;;;;16.56;48.65;98129.25;4992378;28;20054;-73
2022/05/12 02:57:00;;;;;;;7.25;4.60;;;;;;;16.55;48.51;98116.56;4992360;28;20084;-74
2022/05/12 02:59:25;;;;;;;7.63;4.80;;;;;;;16.56;48.39;98118.19;4992306;28;20430;-73
2022/05/12 03:01:51;;;;;;;6.22;5.40;;;;;;;16.59;48.61;98118.28;4992351;28;20513;-73
2022/05/12 03:04:16;;;;;;;8.32;5.65;;;;;;;16.61;48.68;98116.00;4992941;28;20032;-73
2022/05/12 03:06:42;;;;;;;8.30;4.82;;;;;;;16.63;48.82;98115.66;4992728;28;20142;-73
2022/05/12 03:09:09;;;;;;;9.30;5.75;;;;;;;16.65;48.97;98113.38;4991752;28;20026;-73
2022/05/12 03:11:34;;;;;;;6.68;5.10;;;;;;;16.64;48.72;98115.31;4992126;28;20029;-73
2022/05/12 03:14:00;;;;;;;7.05;5.20;;;;;;;16.65;48.20;98116.13;4992287;28;20011;-73
2022/05/12 03:16:26;;;;;;;8.77;5.13;;;;;;;16.67;48.97;98122.94;4994695;28;20410;-73
2022/05/12 03:18:53;;;;;;;8.77;5.07;;;;;;;16.69;48.82;98122.59;4995132;28;20496;-73
2022/05/12 03:21:20;;;;;;;7.82;4.97;;;;;;;16.72;48.53;98115.53;4994699;28;20034;-73
2022/05/12 03:23:46;;;;;;;6.72;4.78;;;;;;;16.74;48.71;98127.88;4992314;28;20027;-73
2022/05/12 03:26:12;;;;;;;8.50;5.18;;;;;;;16.76;48.95;98122.81;4992232;28;20030;-73
2022/05/12 03:28:38;;;;;;;10.93;4.65;;;;;;;16.76;48.73;98117.25;4991696;28;20054;-73
2022/05/12 03:31:04;;;;;;;7.90;4.45;;;;;;;16.78;48.71;98114.16;4992302;28;20042;-73
2022/05/12 03:33:30;;;;;;;7.05;4.90;;;;;;;16.82;48.75;98123.41;4992567;28;20034;-74
2022/05/12 03:35:57;;;;;;;9.60;5.10;;;;;;;16.83;49.04;98113.94;4992470;28;20046;-73
2022/05/12 03:38:22;;;;;;;6.13;4.47;;;;;;;16.85;49.27;98119.94;4992013;28;20110;-73
2022/05/12 03:40:48;;;;;;;6.15;4.63;;;;;;;16.89;49.12;98125.59;4992430;28;20190;-73
2022/05/12 03:44:46;;;;;;;6.20;4.70;;;;;;;16.95;49.39;98119.47;4992551;28;20022;-73
2022/05/12 03:45:59;;;;;;;8.23;4.70;;;;;;;17.00;49.07;98124.00;4992058;28;20475;-73
2022/05/12 03:48:25;;;;;;;6.45;4.50;;;;;;;17.06;49.18;98122.63;4992183;28;20022;-73
2022/05/12 03:50:50;;;;;;;7.15;4.80;;;;;;;17.13;49.36;98126.75;4992194;28;20042;-73
2022/05/12 03:53:16;;;;;;;7.80;4.93;;;;;;;17.17;49.07;98122.94;4992406;28;20077;-74
2022/05/12 03:55:41;;;;;;;10.15;4.65;;;;;;;17.20;49.27;98125.03;4991726;28;20029;-73
2022/05/12 03:58:07;;;;;;;7.40;4.40;;;;;;;17.25;49.17;98124.78;4990416;28;20042;-73
2022/05/12 04:00:34;;;;;;;6.40;4.97;;;;;;;17.30;48.82;98128.47;4991894;28;20112;-73
2022/05/12 04:03:02;;;;;;;7.90;4.47;;;;;;;17.32;49.15;98123.38;4991762;28;20030;-73
2022/05/12 04:05:31;;;;;;;5.68;4.57;;;;;;;17.36;49.11;98124.28;4991738;28;20034;-73
2022/05/12 04:07:57;;;;;;;7.97;4.90;;;;;;;17.37;48.82;98125.91;4991282;28;20033;-74
2022/05/12 04:10:23;;;;;;;7.75;4.75;;;;;;;17.38;49.05;98130.28;4989720;28;20026;-74
2022/05/12 04:12:49;;;;;;;7.90;5.07;;;;;;;17.41;49.13;98126.81;4991722;28;20102;-74
2022/05/12 04:15:16;;;;;;;7.55;4.75;;;;;;;17.45;49.27;98124.16;4989758;28;20129;-73
2022/05/12 04:17:42;;;;;;;10.02;5.20;;;;;;;17.47;49.25;98128.19;4991177;28;20038;-74
2022/05/12 04:20:12;;;;;;;7.15;4.93;;;;;;;17.52;49.11;98118.84;4991532;28;20167;-73
2022/05/12 04:22:40;;;;;;;5.47;4.78;;;;;;;17.59;49.07;98132.09;4989227;28;20037;-73
2022/05/12 04:25:06;;;;;;;6.65;4.35;;;;;;;17.62;49.05;98123.88;4991017;28;20030;-73
2022/05/12 04:27:37;;;;;;;8.93;5.10;;;;;;;17.69;49.11;98131.59;4990968;28;20043;-73
2022/05/12 04:30:04;;;;;;;5.55;5.05;;;;;;;17.74;49.17;98136.88;4991237;28;20154;-74
2022/05/12 04:32:30;;;;;;;10.13;5.38;;;;;;;17.81;48.84;98139.88;4991505;28;20034;-74
2022/05/12 04:35:12;;;;;;;6.93;4.70;;;;;;;17.86;49.13;98136.84;4990973;28;20034;-74
2022/05/12 04:37:47;;;;;;;6.97;4.78;;;;;;;17.93;49.21;98140.97;4991083;28;20045;-73
2022/05/12 04:40:22;;;;;;;7.45;4.57;;;;;;;18.00;49.25;98142.00;4990002;28;20502;-74
2022/05/12 04:42:50;;;;;;;5.90;4.47;;;;;;;18.06;49.34;98136.22;4991266;28;20030;-73
2022/05/12 04:45:17;;;;;;;5.55;4.82;;;;;;;18.12;49.01;98146.72;4990920;28;20152;-73
2022/05/12 04:47:44;;;;;;;7.68;4.63;;;;;;;18.19;48.92;98136.94;4990858;28;20032;-73
2022/05/12 04:50:13;;;;;;;5.25;4.55;;;;;;;18.25;49.12;98135.53;4991228;28;20053;-73
2022/05/12 04:52:38;;;;;;;7.45;4.80;;;;;;;18.30;48.59;98146.38;4991468;28;20442;-73
2022/05/12 04:55:05;;;;;;;6.43;4.80;;;;;;;18.38;48.72;98139.03;4990376;28;20027;-74
2022/05/12 04:57:38;;;;;;;6.30;4.95;;;;;;;18.46;48.73;98126.97;4990745;28;20504;-73
2022/05/12 05:00:06;;;;;;;6.18;4.78;;;;;;;18.55;48.78;98135.09;4989544;28;20057;-73
2022/05/12 05:02:32;;;;;;;6.22;4.25;;;;;;;18.60;48.57;98132.91;4990499;28;20112;-73
2022/05/12 05:04:57;;;;;;;8.48;4.35;;;;;;;18.68;48.54;98133.88;4990071;28;20109;-73
2022/05/12 05:07:24;;;;;;;7.30;4.93;;;;;;;18.74;48.20;98132.44;4989974;28;20058;-73
2022/05/12 05:09:50;;;;;;;5.40;4.82;;;;;;;18.82;48.02;98135.41;4990347;28;20027;-73
2022/05/12 05:12:15;;;;;;;7.63;4.95;;;;;;;18.90;48.24;98128.84;4988551;28;20030;-73
2022/05/12 05:14:41;;;;;;;10.38;4.78;;;;;;;18.97;48.12;98129.03;4990529;28;20034;-74
2022/05/12 05:17:06;;;;;;;7.00;4.75;;;;;;;19.07;48.17;98122.13;4989902;28;20860;-74
2022/05/12 05:19:32;;;;;;;5.15;4.40;;;;;;;19.19;48.11;98138.69;4990465;28;20027;-73
2022/05/12 05:21:57;;;;;;;5.95;4.63;;;;;;;19.28;47.89;98132.13;4992111;28;20481;-73
2022/05/12 05:24:23;;;;;;;5.55;4.85;;;;;;;19.40;48.07;98136.75;4994017;28;20033;-73
2022/05/12 05:26:49;;;;;;;9.48;4.78;;;;;;;19.54;47.83;98144.63;4994034;28;20026;-73
2022/05/12 05:29:14;;;;;;;6.97;4.50;;;;;;;19.66;47.55;98146.47;4993543;28;20046;-73
2022/05/12 05:31:40;;;;;;;7.78;5.05;;;;;;;19.77;47.32;98141.91;4994034;28;20367;-73
2022/05/12 05:34:08;;;;;;;5.95;4.60;;;;;;;19.89;47.31;98144.59;4994276;28;20060;-74
2022/05/12 05:36:44;;;;;;;5.68;4.40;;;;;;;20.01;46.94;98140.03;4993961;28;20533;-74
2022/05/12 05:39:21;;;;;;;10.25;5.13;;;;;;;20.12;47.27;98135.50;4993680;28;20026;-74
2022/05/12 05:41:47;;;;;;;10.27;4.40;;;;;;;20.22;46.88;98128.50;4994159;28;20030;-74
2022/05/12 05:44:12;;;;;;;9.07;4.88;;;;;;;20.34;46.78;98127.53;4993969;28;20030;-74
2022/05/12 05:46:38;;;;;;;6.60;4.90;;;;;;;20.45;46.62;98127.72;4992757;28;20019;-74
2022/05/12 05:49:03;;;;;;;10.23;4.70;;;;;;;20.54;46.47;98142.22;4993545;28;20457;-74
2022/05/12 05:54:12;;;;;;;6.20;4.22;;;;;;;20.77;46.02;98147.81;4994275;28;20089;-74
2022/05/12 05:56:38;;;;;;;6.38;4.50;;;;;;;20.92;45.35;98160.00;4993671;28;20138;-75
2022/05/12 05:59:03;;;;;;;5.30;4.60;;;;;;;21.03;45.56;98151.00;4993752;28;20027;-74
2022/05/12 06:01:29;;;;;;;5.65;4.00;;;;;;;21.13;45.39;98161.53;4993878;28;20027;-75
2022/05/12 06:03:56;;;;;;;10.23;4.28;;;;;;;21.24;45.10;98153.31;4993438;28;20030;-75
2022/05/12 06:06:22;;;;;;;9.30;4.47;;;;;;;21.34;44.81;98160.25;4993412;28;20033;-75
2022/05/12 06:08:48;;;;;;;4.78;4.28;;;;;;;21.44;45.13;98156.81;4992036;28;20027;-75
2022/05/12 06:11:14;;;;;;;8.07;4.00;;;;;;;21.57;45.14;98154.59;4993341;28;20058;-75
2022/05/12 06:13:40;;;;;;;7.57;4.45;;;;;;;21.70;44.74;98146.81;4993265;28;20729;-74
2022/05/12 06:16:05;;;;;;;7.13;4.35;;;;;;;21.82;44.01;98156.94;4993698;28;20029;-75
2022/05/12 06:18:31;;;;;;;5.90;3.97;;;;;;;21.91;44.13;98153.88;4992900;28;20045;-75
2022/05/12 06:20:56;;;;;;;9.93;4.68;;;;;;;22.07;44.15;98157.22;4992986;28;20026;-75
2022/05/12 06:23:22;;;;;;;5.90;4.40;;;;;;;22.23;43.93;98145.84;4992923;28;20505;-73
2022/05/12 06:25:47;;;;;;;4.47;3.92;;;;;;;22.41;43.92;98140.47;4992812;28;20467;-72
2022/05/12 06:28:13;;;;;;;4.88;4.28;;;;;;;22.60;42.49;98149.84;4993340;28;20050;-73
2022/05/12 06:30:39;;;;;;;6.13;4.28;;;;;;;22.74;42.42;98146.38;4993380;28;20019;-73
2022/05/12 06:33:05;;;;;;;6.18;4.07;;;;;;;22.92;42.58;98142.94;4992107;28;20109;-73
2022/05/12 06:35:31;;;;;;;7.03;4.47;;;;;;;23.13;42.10;98139.50;4992850;28;20101;-74
2022/05/12 06:37:57;;;;;;;7.00;4.13;;;;;;;23.31;41.98;98136.84;4992206;28;20038;-73
2022/05/12 06:40:23;;;;;;;7.55;4.47;;;;;;;23.45;41.26;98138.94;4993430;28;20031;-73
2022/05/12 06:42:49;;;;;;;8.05;4.45;;;;;;;23.60;41.95;98131.41;4991821;28;20061;-73
2022/05/12 06:45:17;;;;;;;4.55;3.60;;;;;;;23.76;41.54;98143.09;4992151;28;20053;-73
2022/05/12 06:47:48;;;;;;;6.17;4.43;;;;;;;23.86;40.34;98137.91;4989729;28;20034;-74
2022/05/12 06:50:16;;;;;;;11.20;3.67;;;;;;;23.88;40.14;98146.72;4992291;28;20352;-73
2022/05/12 06:52:43;;;;;;;8.60;4.18;;;;;;;23.89;39.33;98159.53;4992724;28;20020;-73
2022/05/12 06:55:08;;;;;;;7.63;4.35;;;;;;;23.90;39.88;98161.94;4992466;28;20710;-72
2022/05/12 06:57:34;;;;;;;7.50;3.72;;;;;;;23.94;39.77;98176.78;4991840;28;20038;-72
2022/05/12 06:59:59;;;;;;;9.35;4.25;;;;;;;24.01;39.89;98162.00;4991901;28;20030;-69
2022/05/12 07:02:25;;;;;;;7.10;4.18;;;;;;;24.07;39.62;98160.44;4993732;28;20037;-73
2022/05/12 07:04:52;;;;;;;8.18;4.13;;;;;;;24.12;39.55;98162.06;4992809;28;20125;-72
2022/05/12 07:07:20;;;;;;;8.15;4.28;;;;;;;24.19;40.16;98180.91;4992409;28;20022;-72
2022/05/12 07:09:47;;;;;;;6.50;4.05;;;;;;;24.18;39.30;98170.88;4992838;28;20027;-71
2022/05/12 07:12:13;;;;;;;10.75;4.68;;;;;;;24.20;39.77;98180.50;4992904;28;20026;-72
2022/05/12 07:14:38;;;;;;;8.88;3.85;;;;;;;24.19;39.77;98175.31;4991283;28;20026;-72
2022/05/12 07:17:04;;;;;;;6.05;4.30;;;;;;;24.14;39.85;98184.88;4992143;28;20437;-72
2022/05/12 07:19:32;;;;;;;6.65;3.88;;;;;;;24.10;39.98;98183.25;4991791;28;20033;-71
2022/05/12 07:27:35;;;;;;;5.38;4.05;;;;;;;23.74;39.35;98195.06;4989138;28;20149;-71
2022/05/12 07:30:01;;;;;;;5.18;3.65;;;;;;;23.63;39.39;98184.63;4992488;28;20027;-73
2022/05/12 07:32:26;;;;;;;9.18;3.92;;;;;;;23.55;39.55;98187.75;4992350;28;20033;-73
2022/05/12 07:34:52;;;;;;;6.30;3.78;;;;;;;23.48;39.74;98194.91;4992025;28;20109;-73
2022/05/12 07:37:17;;;;;;;16.35;5.68;;;;;;;23.41;39.89;98194.06;4990440;28;20033;-71
2022/05/12 07:39:43;;;;;;;5.32;3.90;;;;;;;23.35;40.12;98193.63;4992204;28;20030;-71
2022/05/12 07:42:08;;;;;;;5.97;3.92;;;;;;;23.30;40.20;98196.78;4992562;28;20026;-71
2022/05/12 07:44:34;;;;;;;4.47;3.83;;;;;;;23.25;40.57;98197.16;4991888;28;20483;-71
2022/05/12 07:47:06;;;;;;;6.85;4.25;;;;;;;23.18;40.51;98206.28;4992389;28;20034;-71
2022/05/12 07:49:35;;;;;;;4.90;3.85;;;;;;;23.16;40.84;98192.66;4991466;28;20029;-71
2022/05/12 07:52:02;;;;;;;5.55;3.78;;;;;;;23.18;40.96;98212.66;4992221;28;20436;-71
2022/05/12 07:54:27;;;;;;;8.68;3.90;;;;;;;23.15;40.80;98210.63;4991819;28;20363;-72
2022/05/12 07:56:53;;;;;;;6.32;4.25;;;;;;;23.09;41.21;98209.38;4990254;28;20050;-72
2022/05/12 07:59:19;;;;;;;7.68;4.10;;;;;;;23.03;40.84;98199.72;4991518;28;20045;-71
2022/05/12 08:01:45;;;;;;;9.45;4.50;;;;;;;23.00;41.20;98208.91;4991885;28;20034;-72
2022/05/12 08:04:12;;;;;;;5.07;4.20;;;;;;;22.98;41.42;98202.91;4986552;28;20034;-74
2022/05/12 08:06:39;;;;;;;5.75;3.88;;;;;;;22.98;41.88;98194.53;4989644;28;20026;-73
2022/05/12 08:09:05;;;;;;;8.98;4.00;;;;;;;23.07;42.39;98200.56;4989853;28;20485;-74
2022/05/12 08:11:31;;;;;;;4.75;3.83;;;;;;;23.20;42.02;98195.50;4987478;28;20058;-72
2022/05/12 08:13:57;;;;;;;5.53;3.78;;;;;;;23.28;42.17;98205.56;4990091;28;20112;-73
2022/05/12 08:16:23;;;;;;;6.15;3.90;;;;;;;23.30;41.13;98194.00;4990222;28;20049;-73
2022/05/12 08:18:52;;;;;;;9.57;4.40;;;;;;;23.29;41.70;98192.38;4989965;28;20030;-73
2022/05/12 08:21:19;;;;;;;6.28;3.65;;;;;;;23.33;41.44;98201.63;4991511;28;20502;-73
2022/05/12 08:23:44;;;;;;;5.82;3.97;;;;;;;23.44;41.22;98199.66;4989749;28;20710;-73
2022/05/12 08:26:10;;;;;;;7.30;3.97;;;;;;;23.53;41.45;98190.13;4989790;28;20072;-72
2022/05/12 08:28:37;;;;;;;7.22;3.75;;;;;;;23.64;40.85;98202.22;4989580;28;20045;-73
2022/05/12 08:31:03;;;;;;;9.27;4.03;;;;;;;23.78;40.99;98182.69;4989531;28;20285;-73
2022/05/12 08:33:29;;;;;;;9.10;3.83;;;;;;;24.03;40.98;98184.84;4990437;28;20079;-72
2022/05/12 08:35:54;;;;;;;4.65;3.65;;;;;;;24.27;40.18;98181.72;4989960;28;20561;-72
2022/05/12 08:38:21;;;;;;;5.15;3.70;;;;;;;24.32;39.04;98187.72;4990300;28;20058;-72
2022/05/12 08:41:12;;;;;;;10.90;4.32;;;;;;;24.36;39.35;98182.94;4991166;28;20096;-73
2022/05/12 08:43:40;;;;;;;11.10;3.55;;;;;;;24.37;38.43;98195.75;4990953;28;20109;-72
2022/05/12 08:46:09;;;;;;;8.98;3.42;;;;;;;24.34;37.80;98184.56;4991027;28;20145;-73
2022/05/12 08:48:39;;;;;;;10.40;3.90;;;;;;;24.37;38.44;98192.94;4987236;28;20110;-71
2022/05/12 08:51:06;;;;;;;7.25;3.40;;;;;;;24.53;38.58;98197.41;4990620;28;20045;-73
2022/05/12 08:53:43;;;;;;;9.45;3.55;;;;;;;24.59;37.11;98195.81;4990404;28;20042;-72
2022/05/12 08:56:09;;;;;;;9.05;3.40;;;;;;;24.58;37.16;98205.44;4990182;28;20058;-73
2022/05/12 08:58:38;;;;;;;7.65;3.22;;;;;;;24.61;36.68;98206.63;4990124;28;20065;-72
2022/05/12 09:01:17;;;;;;;9.25;3.30;;;;;;;24.62;36.19;98208.22;4990351;28;20402;-72
2022/05/12 09:04:13;;;;;;;5.03;3.40;;;;;;;24.65;36.51;98208.25;4990910;28;20026;-73
2022/05/12 09:06:54;;;;;;;4.97;3.08;;;;;;;24.72;36.35;98210.28;4990646;28;20077;-72
2022/05/12 09:09:50;;;;;;;6.93;3.60;;;;;;;24.74;36.79;98210.69;4989842;28;20038;-73
2022/05/12 09:12:35;;;;;;;9.25;3.50;;;;;;;24.80;37.38;98225.94;4990461;28;20157;-73
2022/05/12 09:15:16;;;;;;;4.20;2.95;;;;;;;24.89;36.28;98214.31;4990389;28;20041;-73
2022/05/12 09:17:42;;;;;;;7.57;3.30;;;;;;;25.02;37.24;98220.34;4988517;28;20034;-74
2022/05/12 09:20:11;;;;;;;8.30;3.45;;;;;;;25.11;36.96;98205.91;4986835;28;20598;-78
2022/05/12 09:22:38;;;;;;;5.13;3.25;;;;;;;25.23;36.53;98221.56;4989184;28;20117;-71
2022/05/12 09:25:06;;;;;;;6.65;3.38;;;;;;;25.30;37.04;98221.53;4988756;28;20121;-70
2022/05/12 09:27:34;;;;;;;8.13;3.58;;;;;;;25.32;36.82;98216.31;4988928;28;20572;-70
2022/05/12 09:30:00;;;;;;;5.88;3.38;;;;;;;25.34;36.13;98218.75;4987646;28;20129;-72
2022/05/12 09:32:31;;;;;;;4.60;3.25;;;;;;;25.37;36.07;98224.34;4986566;28;20034;-71
2022/05/12 09:35:18;;;;;;;6.32;3.58;;;;;;;25.34;35.71;98227.94;4987091;28;20023;-71
2022/05/12 09:37:43;;;;;;;5.63;3.25;;;;;;;25.32;36.59;98240.78;4986814;28;20386;-72
2022/05/12 09:40:31;;;;;;;5.85;3.65;;;;;;;25.32;36.44;98226.75;4988369;28;20033;-69
2022/05/12 09:43:00;;;;;;;15.77;4.20;;;;;;;25.39;37.38;98247.19;4986742;28;20033;-71
2022/05/12 09:45:34;;;;;;;7.38;3.38;;;;;;;25.42;35.94;98237.97;4986171;28;20126;-71
2022/05/12 09:48:24;;;;;;;5.05;3.30;;;;;;;25.48;36.21;98244.00;4989952;28;20088;-71
2022/05/12 09:50:50;;;;;;;6.20;3.40;;;;;;;25.53;35.75;98240.00;4989771;28;20038;-69
2022/05/12 09:53:30;;;;;;;6.35;3.25;;;;;;;25.72;35.96;98235.97;4987919;28;20022;-71
2022/05/12 09:56:05;;;;;;;7.70;3.45;;;;;;;25.96;35.11;98245.53;4986786;28;20034;-71
2022/05/12 09:58:47;;;;;;;5.57;3.35;;;;;;;26.04;35.11;98246.31;4986776;28;20122;-71
2022/05/12 10:01:20;;;;;;;5.93;3.10;;;;;;;26.18;34.74;98234.25;4981903;28;20161;-71
2022/05/12 10:09:24;;;;;;;5.72;3.15;;;;;;;26.41;33.04;98236.56;4991205;28;20133;-70
2022/05/12 10:12:12;;;;;;;5.55;3.30;;;;;;;26.28;32.98;98227.00;4989793;28;20042;-71
2022/05/12 10:14:53;;;;;;;5.28;3.10;;;;;;;26.14;33.76;98239.06;4991162;28;20515;-71
2022/05/12 10:17:33;;;;;;;4.85;3.00;;;;;;;26.00;33.27;98223.84;4992779;28;20030;-71
2022/05/12 10:20:01;;;;;;;;;;;;;;;25.91;34.14;98233.91;4993447;28;20075;-71
2022/05/12 10:22:54;;;;;;;6.05;3.42;;;;;;;25.84;34.47;98245.97;4992166;28;19917;-71
2022/05/12 10:25:43;;;;;;;6.30;3.22;;;;;;;25.67;34.68;98242.81;4991142;28;20068;-70
2022/05/12 10:28:28;;;;;;;18.38;3.35;;;;;;;25.50;34.06;98250.03;4992320;28;20082;-70
2022/05/12 10:31:09;;;;;;;6.03;2.95;;;;;;;25.38;33.43;98256.81;4990907;28;20045;-70
2022/05/12 10:34:22;;;;;;;5.90;2.80;;;;;;;25.39;33.98;98254.84;4990290;28;20065;-71
2022/05/12 10:37:12;;;;;;;7.97;2.90;;;;;;;25.53;34.99;98246.41;4976390;28;20046;-71
2022/05/12 10:39:40;;;;;;;5.55;2.70;;;;;;;25.69;34.83;98253.63;4991396;28;20038;-71
2022/05/12 10:42:12;;;;;;;5.85;2.45;;;;;;;25.75;34.23;98254.81;4991114;28;20122;-70
2022/05/12 10:44:55;;;;;;;6.72;2.55;;;;;;;25.88;34.46;98251.59;4992944;28;20030;-71
2022/05/12 10:47:26;;;;;;;8.38;2.60;;;;;;;26.08;32.85;98249.91;4992565;28;20026;-70
2022/05/12 10:50:02;;;;;;;4.93;2.60;;;;;;;26.22;33.00;98273.59;4992234;28;20467;-70
2022/05/12 10:52:39;;;;;;;2.47;2.28;;;;;;;26.30;32.62;98258.28;4993500;28;20030;-69
2022/05/12 10:55:21;;;;;;;4.70;2.80;;;;;;;26.23;31.28;98259.13;4992202;28;20512;-70
2022/05/12 10:57:53;;;;;;;4.43;2.33;;;;;;;26.18;31.98;98256.72;4990336;28;20517;-69
2022/05/12 11:00:31;;;;;;;7.22;2.75;;;;;;;26.20;31.56;98250.72;4992725;28;20026;-69
2022/05/12 11:03:06;;;;;;;7.53;2.40;;;;;;;26.21;31.04;98250.28;4991175;28;20035;-70
2022/05/12 11:05:43;;;;;;;14.52;3.00;;;;;;;26.01;31.08;98253.56;4992045;28;20292;-70
2022/05/12 11:08:19;;;;;;;12.55;7.45;;;;;;;26.24;32.10;98274.00;4989289;28;20080;-69
2022/05/12 11:10:59;;;;;;;4.97;2.38;;;;;;;26.42;31.21;98257.06;4986982;28;20699;-69
2022/05/12 11:13:28;;;;;;;4.57;2.40;;;;;;;26.35;31.77;98269.13;4991433;28;20450;-70
2022/05/12 11:16:16;;;;;;;5.35;2.20;;;;;;;26.23;31.16;98283.63;4992697;28;20038;-69
2022/05/12 11:18:48;;;;;;;3.83;2.10;;;;;;;26.11;31.38;98271.59;4991275;28;20383;-70
2022/05/12 11:21:27;;;;;;;6.32;2.50;;;;;;;26.04;31.60;98273.63;4990425;28;20038;-69
2022/05/12 11:24:22;;;;;;;6.30;2.38;;;;;;;26.09;31.57;98271.19;4989516;28;20109;-70
2022/05/12 11:27:33;;;;;;;5.03;1.88;;;;;;;26.15;31.49;98266.78;4991260;28;20026;-69
2022/05/12 11:30:23;;;;;;;6.85;2.35;;;;;;;26.22;30.80;98290.47;4990874;28;20057;-69
2022/05/12 11:32:55;;;;;;;7.80;2.33;;;;;;;26.25;30.70;98273.56;4991325;28;20066;-69
2022/05/12 11:35:32;;;;;;;6.30;2.15;;;;;;;26.29;31.82;98253.88;4991638;28;20045;-70
2022/05/12 11:38:04;;;;;;;9.80;2.60;;;;;;;26.37;31.59;98274.34;4990543;28;20049;-70
2022/05/12 11:40:48;;;;;;;4.43;2.25;;;;;;;26.43;31.44;98276.31;4990491;28;20038;-69
2022/05/12 11:46:35;;;;;;;6.13;2.53;;;;;;;26.56;31.39;98270.25;4990270;28;20081;-70
2022/05/12 11:49:05;;;;;;;5.88;2.78;;;;;;;26.70;31.28;98287.03;4987830;28;20030;-70
2022/05/12 11:51:57;;;;;;;5.45;3.00;;;;;;;26.71;32.14;98285.03;4985726;28;20398;-70
2022/05/12 11:54:38;;;;;;;6.85;2.60;;;;;;;26.78;31.90;98278.56;4986773;28;20026;-71
2022/05/12 11:57:19;;;;;;;14.77;6.50;;;;;;;26.79;31.23;98285.78;4986877;28;20034;-70
2022/05/12 11:59:47;;;;;;;12.20;4.00;;;;;;;26.82;31.29;98299.88;4988969;28;20033;-73
2022/05/12 12:02:28;;;;;;;7.40;4.55;;;;;;;26.77;30.04;98285.38;4987329;28;20038;-70